»·PEaware :: N695DS KHND-KHII

N695DS :: KHND-KHII

FLIGHT INFORMATION

Flight Status: Arrived
Operator: Privately registered:
United States
More flights under this callsign
Pilot: Christopher S. (2105)
Aircraft: Diamond DA-62
(DA62)
More flights by this aircraft type
Origin: KHND Henderson
United States
Destination: KHII Lake Havasu City
United States
More flights between these airports :: More routes between these airports
Route: BLD V237 EED
File this flight plan on PilotEdge
Remarks:
Altitude:
(Current/Filed)
9,000ft
Speed:
(Current/Filed)
170kts
Departed: 27-Jan-19 02:54 PM
Arrived: 27-Jan-19 03:30 PM
Distance/Time
Traveled:
93nm/0:35
Distance/Time
To Go:
Arrived

Flight Plot

Page will automatically refresh every two minutes.

Flight plan parsing failed; only flown route is shown


Map Options




Map Legend


Flown Route
Filed Route
Departure Airport
Arrival Airport
Navaid (VOR, NDB)
Fix

Horizontal Profiles

Position Reports

Time Latitude Longitude Heading Altitude Ground
Speed
27-Jan-19 14:34 35.975112 -115.138212 0 2418ft 0kts
27-Jan-19 14:35 35.975112 -115.138212 0 2418ft 0kts
27-Jan-19 14:36 35.975112 -115.138212 0 2418ft 0kts
27-Jan-19 14:37 35.975112 -115.138212 0 2418ft 0kts
27-Jan-19 14:38 35.975112 -115.138212 0 2418ft 0kts
27-Jan-19 14:39 35.975112 -115.138212 0 2418ft 0kts
27-Jan-19 14:40 35.975112 -115.138212 0 2418ft 0kts
27-Jan-19 14:41 35.975112 -115.138212 0 2418ft 0kts
27-Jan-19 14:42 35.975112 -115.138212 0 2418ft 0kts
27-Jan-19 14:43 35.975112 -115.138212 0 2418ft 0kts
27-Jan-19 14:44 35.975251 -115.138122 76 2418ft 1kts
27-Jan-19 14:45 35.975162 -115.136943 158 2421ft 3kts
27-Jan-19 14:46 35.974184 -115.136426 178 2425ft 6kts
27-Jan-19 14:47 35.972371 -115.136448 180 2434ft 4kts
27-Jan-19 14:48 35.969334 -115.136475 180 2448ft 17kts
27-Jan-19 14:49 35.965630 -115.136533 179 2462ft 9kts
27-Jan-19 14:50 35.963131 -115.136256 57 2472ft 0kts
27-Jan-19 14:51 35.963131 -115.136255 58 2472ft 0kts
27-Jan-19 14:52 35.963230 -115.135553 20 2473ft 3kts
27-Jan-19 14:53 35.967161 -115.135477 1 2461ft 83kts
27-Jan-19 14:54 35.996157 -115.126972 40 3392ft 122kts
27-Jan-19 14:55 35.980578 -115.103834 189 4387ft 132kts
27-Jan-19 14:56 35.944787 -115.114851 191 5482ft 136kts
27-Jan-19 14:57 35.908944 -115.127342 198 6707ft 125kts
27-Jan-19 14:58 35.873251 -115.117092 125 7387ft 147kts
27-Jan-19 14:59 35.848895 -115.076899 121 8262ft 149kts
27-Jan-19 15:00 35.822469 -115.033133 121 8809ft 168kts
27-Jan-19 15:01 35.794659 -114.984712 121 9305ft 178kts
27-Jan-19 15:02 35.765888 -114.931905 121 9478ft 195kts
27-Jan-19 15:03 35.735342 -114.875391 121 9475ft 200kts
27-Jan-19 15:04 35.704466 -114.818177 121 9475ft 201kts
27-Jan-19 15:05 35.673765 -114.760920 120 9461ft 202kts
27-Jan-19 15:06 35.620083 -114.735964 168 9011ft 207kts
27-Jan-19 15:07 35.564681 -114.718918 166 8996ft 205kts
27-Jan-19 15:08 35.509316 -114.700888 166 8982ft 206kts
27-Jan-19 15:09 35.453918 -114.682607 166 8982ft 206kts
27-Jan-19 15:10 35.398362 -114.665509 167 9016ft 205kts
27-Jan-19 15:11 35.342888 -114.648679 167 9020ft 206kts
27-Jan-19 15:12 35.287206 -114.631714 167 9020ft 206kts
27-Jan-19 15:13 35.231690 -114.614791 167 9020ft 206kts
27-Jan-19 15:14 35.175832 -114.597798 167 9020ft 206kts
27-Jan-19 15:15 35.120161 -114.580890 167 9021ft 206kts
27-Jan-19 15:16 35.064443 -114.563995 167 9021ft 207kts
27-Jan-19 15:17 35.008653 -114.547104 167 9023ft 206kts
27-Jan-19 15:18 34.952894 -114.530243 167 9026ft 205kts
27-Jan-19 15:19 34.896915 -114.513369 166 8604ft 219kts
27-Jan-19 15:20 34.836803 -114.495327 166 7412ft 224kts
27-Jan-19 15:21 34.776675 -114.477201 165 6207ft 221kts
27-Jan-19 15:22 34.724366 -114.449490 151 6023ft 197kts
27-Jan-19 15:23 34.675054 -114.420203 158 5599ft 199kts
27-Jan-19 15:24 34.619542 -114.400322 160 2921ft 210kts
27-Jan-19 15:25 34.573726 -114.373582 155 1778ft 150kts
27-Jan-19 15:26 34.541366 -114.356541 157 1542ft 111kts
27-Jan-19 15:27 34.542158 -114.336951 319 1354ft 93kts
27-Jan-19 15:28 34.562921 -114.352502 325 784ft 74kts
27-Jan-19 15:29 34.568654 -114.357633 176 749ft 11kts
27-Jan-19 15:30 34.567558 -114.359713 216 730ft 0kts

Navigation Log

Ident Type
Flight plan parsing failed, navigation log unavailable